sensor_id;sensor_type;location;lat;lon;timestamp;P1;durP1;ratioP1;P2;durP2;ratioP2
428;SDS011;201;48.758;9.290;2022-10-19T00:00:29;38.40;;;13.80;;
428;SDS011;201;48.758;9.290;2022-10-19T00:02:55;47.67;;;13.40;;
428;SDS011;201;48.758;9.290;2022-10-19T00:05:20;13.30;;;10.50;;
428;SDS011;201;48.758;9.290;2022-10-19T00:07:46;11.47;;;9.57;;
428;SDS011;201;48.758;9.290;2022-10-19T00:10:11;13.60;;;10.87;;
428;SDS011;201;48.758;9.290;2022-10-19T00:12:37;17.20;;;12.40;;
428;SDS011;201;48.758;9.290;2022-10-19T00:15:03;13.77;;;10.30;;
428;SDS011;201;48.758;9.290;2022-10-19T00:17:29;16.47;;;11.90;;
428;SDS011;201;48.758;9.290;2022-10-19T00:19:54;15.33;;;10.13;;
428;SDS011;201;48.758;9.290;2022-10-19T00:22:20;15.10;;;10.00;;
428;SDS011;201;48.758;9.290;2022-10-19T00:24:45;15.50;;;11.40;;
428;SDS011;201;48.758;9.290;2022-10-19T00:27:11;14.87;;;11.00;;
428;SDS011;201;48.758;9.290;2022-10-19T00:29:37;13.10;;;10.93;;
428;SDS011;201;48.758;9.290;2022-10-19T00:32:02;18.93;;;10.90;;
428;SDS011;201;48.758;9.290;2022-10-19T00:34:28;16.40;;;12.60;;
428;SDS011;201;48.758;9.290;2022-10-19T00:36:54;20.93;;;12.70;;
428;SDS011;201;48.758;9.290;2022-10-19T00:39:19;19.97;;;15.40;;
428;SDS011;201;48.758;9.290;2022-10-19T00:41:45;20.73;;;14.40;;
428;SDS011;201;48.758;9.290;2022-10-19T00:46:46;20.47;;;13.97;;
428;SDS011;201;48.758;9.290;2022-10-19T00:49:23;19.37;;;12.80;;
428;SDS011;201;48.758;9.290;2022-10-19T00:51:53;18.83;;;13.10;;
428;SDS011;201;48.758;9.290;2022-10-19T00:54:22;20.97;;;13.97;;
428;SDS011;201;48.758;9.290;2022-10-19T00:56:49;20.67;;;13.80;;
428;SDS011;201;48.758;9.290;2022-10-19T00:59:17;21.67;;;14.53;;
428;SDS011;201;48.758;9.290;2022-10-19T01:01:45;23.90;;;14.13;;
428;SDS011;201;48.758;9.290;2022-10-19T01:04:13;20.57;;;14.03;;
428;SDS011;201;48.758;9.290;2022-10-19T01:06:39;27.53;;;14.33;;
428;SDS011;201;48.758;9.290;2022-10-19T01:09:05;27.53;;;15.20;;
428;SDS011;201;48.758;9.290;2022-10-19T01:11:36;25.03;;;15.50;;
428;SDS011;201;48.758;9.290;2022-10-19T01:20:09;24.30;;;15.73;;
428;SDS011;201;48.758;9.290;2022-10-19T01:25:48;21.40;;;14.83;;
428;SDS011;201;48.758;9.290;2022-10-19T01:36:58;27.97;;;17.13;;
428;SDS011;201;48.758;9.290;2022-10-19T01:42:13;28.20;;;17.67;;
428;SDS011;201;48.758;9.290;2022-10-19T01:44:50;31.10;;;17.40;;
428;SDS011;201;48.758;9.290;2022-10-19T01:47:23;23.37;;;15.97;;
428;SDS011;201;48.758;9.290;2022-10-19T01:49:53;27.40;;;15.67;;
428;SDS011;201;48.758;9.290;2022-10-19T01:52:23;24.70;;;13.63;;
428;SDS011;201;48.758;9.290;2022-10-19T01:54:51;24.07;;;12.80;;
428;SDS011;201;48.758;9.290;2022-10-19T01:57:25;22.73;;;11.20;;
428;SDS011;201;48.758;9.290;2022-10-19T01:59:55;33.70;;;11.97;;
428;SDS011;201;48.758;9.290;2022-10-19T02:02:22;25.30;;;12.77;;
428;SDS011;201;48.758;9.290;2022-10-19T02:04:50;36.63;;;13.23;;
428;SDS011;201;48.758;9.290;2022-10-19T02:07:19;43.40;;;13.23;;
428;SDS011;201;48.758;9.290;2022-10-19T02:09:46;30.33;;;12.63;;
428;SDS011;201;48.758;9.290;2022-10-19T02:12:12;31.53;;;11.90;;
428;SDS011;201;48.758;9.290;2022-10-19T02:14:40;13.50;;;11.10;;
428;SDS011;201;48.758;9.290;2022-10-19T02:17:09;23.20;;;12.03;;
428;SDS011;201;48.758;9.290;2022-10-19T02:19:38;21.50;;;12.30;;
428;SDS011;201;48.758;9.290;2022-10-19T02:22:04;39.33;;;14.80;;
428;SDS011;201;48.758;9.290;2022-10-19T02:24:30;28.93;;;15.47;;
428;SDS011;201;48.758;9.290;2022-10-19T02:26:55;55.87;;;15.23;;
428;SDS011;201;48.758;9.290;2022-10-19T02:29:21;22.07;;;14.97;;
428;SDS011;201;48.758;9.290;2022-10-19T02:31:47;34.63;;;14.80;;
428;SDS011;201;48.758;9.290;2022-10-19T02:34:13;40.07;;;15.53;;
428;SDS011;201;48.758;9.290;2022-10-19T02:36:39;45.73;;;14.50;;
428;SDS011;201;48.758;9.290;2022-10-19T02:39:05;56.67;;;16.47;;
428;SDS011;201;48.758;9.290;2022-10-19T02:41:33;73.93;;;16.20;;
428;SDS011;201;48.758;9.290;2022-10-19T02:44:24;44.37;;;16.10;;
428;SDS011;201;48.758;9.290;2022-10-19T02:46:56;36.83;;;16.27;;
428;SDS011;201;48.758;9.290;2022-10-19T02:49:27;49.77;;;16.37;;
428;SDS011;201;48.758;9.290;2022-10-19T02:54:34;42.30;;;16.03;;
428;SDS011;201;48.758;9.290;2022-10-19T02:57:02;54.83;;;16.50;;
428;SDS011;201;48.758;9.290;2022-10-19T02:59:32;55.33;;;17.40;;
428;SDS011;201;48.758;9.290;2022-10-19T03:01:57;96.33;;;19.10;;
428;SDS011;201;48.758;9.290;2022-10-19T03:04:22;66.63;;;20.33;;
428;SDS011;201;48.758;9.290;2022-10-19T03:06:48;55.60;;;17.43;;
428;SDS011;201;48.758;9.290;2022-10-19T03:09:14;87.17;;;20.07;;
428;SDS011;201;48.758;9.290;2022-10-19T03:11:39;178.77;;;24.77;;
428;SDS011;201;48.758;9.290;2022-10-19T03:14:05;238.70;;;29.50;;
428;SDS011;201;48.758;9.290;2022-10-19T03:16:30;204.23;;;28.10;;
428;SDS011;201;48.758;9.290;2022-10-19T03:18:56;112.47;;;21.23;;
428;SDS011;201;48.758;9.290;2022-10-19T03:21:21;143.70;;;21.37;;
428;SDS011;201;48.758;9.290;2022-10-19T03:23:47;205.63;;;30.30;;
428;SDS011;201;48.758;9.290;2022-10-19T03:26:13;209.03;;;26.40;;
428;SDS011;201;48.758;9.290;2022-10-19T03:28:40;120.10;;;22.40;;
428;SDS011;201;48.758;9.290;2022-10-19T03:31:06;75.00;;;19.37;;
428;SDS011;201;48.758;9.290;2022-10-19T03:33:31;94.17;;;19.67;;
428;SDS011;201;48.758;9.290;2022-10-19T03:36:13;80.77;;;19.43;;
428;SDS011;201;48.758;9.290;2022-10-19T03:38:53;58.20;;;16.83;;
428;SDS011;201;48.758;9.290;2022-10-19T03:41:21;63.23;;;17.63;;
428;SDS011;201;48.758;9.290;2022-10-19T03:43:48;52.80;;;18.10;;
428;SDS011;201;48.758;9.290;2022-10-19T03:46:14;58.37;;;18.03;;
428;SDS011;201;48.758;9.290;2022-10-19T03:48:40;52.90;;;16.60;;
428;SDS011;201;48.758;9.290;2022-10-19T03:51:06;60.50;;;18.90;;
428;SDS011;201;48.758;9.290;2022-10-19T03:53:34;53.93;;;17.00;;
428;SDS011;201;48.758;9.290;2022-10-19T03:56:04;71.10;;;16.70;;
428;SDS011;201;48.758;9.290;2022-10-19T03:58:36;49.73;;;17.50;;
428;SDS011;201;48.758;9.290;2022-10-19T04:01:05;67.87;;;17.40;;
428;SDS011;201;48.758;9.290;2022-10-19T04:03:36;99.23;;;20.13;;
428;SDS011;201;48.758;9.290;2022-10-19T04:06:03;87.87;;;19.13;;
428;SDS011;201;48.758;9.290;2022-10-19T04:08:31;64.50;;;16.27;;
428;SDS011;201;48.758;9.290;2022-10-19T04:10:58;75.37;;;20.60;;
428;SDS011;201;48.758;9.290;2022-10-19T04:13:31;311.37;;;34.50;;
428;SDS011;201;48.758;9.290;2022-10-19T04:15:57;300.47;;;31.50;;
428;SDS011;201;48.758;9.290;2022-10-19T04:18:23;174.20;;;25.47;;
428;SDS011;201;48.758;9.290;2022-10-19T04:20:54;209.20;;;27.20;;
428;SDS011;201;48.758;9.290;2022-10-19T04:23:25;175.17;;;25.67;;
428;SDS011;201;48.758;9.290;2022-10-19T04:25:51;165.27;;;23.57;;
428;SDS011;201;48.758;9.290;2022-10-19T04:28:22;183.97;;;25.37;;
428;SDS011;201;48.758;9.290;2022-10-19T04:30:48;182.30;;;26.60;;
428;SDS011;201;48.758;9.290;2022-10-19T04:33:13;177.27;;;25.70;;
428;SDS011;201;48.758;9.290;2022-10-19T04:35:39;167.13;;;23.97;;
428;SDS011;201;48.758;9.290;2022-10-19T04:38:05;165.70;;;23.60;;
428;SDS011;201;48.758;9.290;2022-10-19T04:40:32;173.07;;;27.00;;
428;SDS011;201;48.758;9.290;2022-10-19T04:42:59;169.53;;;28.77;;
428;SDS011;201;48.758;9.290;2022-10-19T04:45:24;121.20;;;24.20;;
428;SDS011;201;48.758;9.290;2022-10-19T04:47:50;218.73;;;28.00;;
428;SDS011;201;48.758;9.290;2022-10-19T04:50:24;193.20;;;26.90;;
428;SDS011;201;48.758;9.290;2022-10-19T04:52:50;127.63;;;25.90;;
428;SDS011;201;48.758;9.290;2022-10-19T04:55:16;126.30;;;24.07;;
428;SDS011;201;48.758;9.290;2022-10-19T04:57:41;177.37;;;28.20;;
428;SDS011;201;48.758;9.290;2022-10-19T05:00:07;107.97;;;23.63;;
428;SDS011;201;48.758;9.290;2022-10-19T05:02:33;126.63;;;24.00;;
428;SDS011;201;48.758;9.290;2022-10-19T05:04:59;130.00;;;25.33;;
428;SDS011;201;48.758;9.290;2022-10-19T05:07:24;188.77;;;29.20;;
428;SDS011;201;48.758;9.290;2022-10-19T05:09:50;221.40;;;29.20;;
428;SDS011;201;48.758;9.290;2022-10-19T05:12:15;134.20;;;25.13;;
428;SDS011;201;48.758;9.290;2022-10-19T05:14:41;132.97;;;25.10;;
428;SDS011;201;48.758;9.290;2022-10-19T05:17:06;116.83;;;24.83;;
428;SDS011;201;48.758;9.290;2022-10-19T05:19:32;163.23;;;25.87;;
428;SDS011;201;48.758;9.290;2022-10-19T05:21:58;183.77;;;27.20;;
428;SDS011;201;48.758;9.290;2022-10-19T05:24:23;151.07;;;26.00;;
428;SDS011;201;48.758;9.290;2022-10-19T05:26:49;132.23;;;25.10;;
428;SDS011;201;48.758;9.290;2022-10-19T05:29:14;198.77;;;29.53;;
428;SDS011;201;48.758;9.290;2022-10-19T05:31:40;116.20;;;22.97;;
428;SDS011;201;48.758;9.290;2022-10-19T05:34:05;136.03;;;24.10;;
428;SDS011;201;48.758;9.290;2022-10-19T05:36:35;120.93;;;24.30;;
428;SDS011;201;48.758;9.290;2022-10-19T05:39:03;147.77;;;26.90;;
428;SDS011;201;48.758;9.290;2022-10-19T05:41:29;150.67;;;26.23;;
428;SDS011;201;48.758;9.290;2022-10-19T05:43:56;90.13;;;22.90;;
428;SDS011;201;48.758;9.290;2022-10-19T05:46:23;201.73;;;29.60;;
428;SDS011;201;48.758;9.290;2022-10-19T05:48:50;204.13;;;27.73;;
428;SDS011;201;48.758;9.290;2022-10-19T05:51:17;100.83;;;22.70;;
428;SDS011;201;48.758;9.290;2022-10-19T05:53:44;43.23;;;19.20;;
428;SDS011;201;48.758;9.290;2022-10-19T05:56:20;59.00;;;20.60;;
428;SDS011;201;48.758;9.290;2022-10-19T05:58:48;54.57;;;19.90;;
428;SDS011;201;48.758;9.290;2022-10-19T06:01:14;51.17;;;18.30;;
428;SDS011;201;48.758;9.290;2022-10-19T06:03:42;52.50;;;20.90;;
428;SDS011;201;48.758;9.290;2022-10-19T06:06:08;38.10;;;18.80;;
428;SDS011;201;48.758;9.290;2022-10-19T06:08:34;30.17;;;16.57;;
428;SDS011;201;48.758;9.290;2022-10-19T06:11:04;30.73;;;17.57;;
428;SDS011;201;48.758;9.290;2022-10-19T06:13:34;20.87;;;16.23;;
428;SDS011;201;48.758;9.290;2022-10-19T06:16:00;21.40;;;14.93;;
428;SDS011;201;48.758;9.290;2022-10-19T06:18:26;27.73;;;16.57;;
428;SDS011;201;48.758;9.290;2022-10-19T06:20:51;25.63;;;15.43;;
428;SDS011;201;48.758;9.290;2022-10-19T06:23:18;37.50;;;19.00;;
428;SDS011;201;48.758;9.290;2022-10-19T06:25:43;28.30;;;15.67;;
428;SDS011;201;48.758;9.290;2022-10-19T06:28:09;23.07;;;16.33;;
428;SDS011;201;48.758;9.290;2022-10-19T06:30:41;74.47;;;19.77;;
428;SDS011;201;48.758;9.290;2022-10-19T06:33:06;119.80;;;22.40;;
428;SDS011;201;48.758;9.290;2022-10-19T06:35:32;72.70;;;18.13;;
428;SDS011;201;48.758;9.290;2022-10-19T06:37:58;65.10;;;18.10;;
428;SDS011;201;48.758;9.290;2022-10-19T06:40:24;57.27;;;20.40;;
428;SDS011;201;48.758;9.290;2022-10-19T06:42:50;67.23;;;19.50;;
428;SDS011;201;48.758;9.290;2022-10-19T06:45:15;64.10;;;17.93;;
428;SDS011;201;48.758;9.290;2022-10-19T06:47:41;31.77;;;16.70;;
428;SDS011;201;48.758;9.290;2022-10-19T06:50:07;49.53;;;18.37;;
428;SDS011;201;48.758;9.290;2022-10-19T06:52:33;69.53;;;19.00;;
428;SDS011;201;48.758;9.290;2022-10-19T06:54:59;45.23;;;16.90;;
428;SDS011;201;48.758;9.290;2022-10-19T06:57:24;222.17;;;29.97;;
428;SDS011;201;48.758;9.290;2022-10-19T06:59:50;56.47;;;20.00;;
428;SDS011;201;48.758;9.290;2022-10-19T07:02:16;120.93;;;25.47;;
428;SDS011;201;48.758;9.290;2022-10-19T07:04:41;180.57;;;31.70;;
428;SDS011;201;48.758;9.290;2022-10-19T07:07:07;286.53;;;34.87;;
428;SDS011;201;48.758;9.290;2022-10-19T07:09:33;284.53;;;34.33;;
428;SDS011;201;48.758;9.290;2022-10-19T07:11:58;103.37;;;27.30;;
428;SDS011;201;48.758;9.290;2022-10-19T07:14:24;155.70;;;28.47;;
428;SDS011;201;48.758;9.290;2022-10-19T07:16:52;106.07;;;25.10;;
428;SDS011;201;48.758;9.290;2022-10-19T07:19:18;62.53;;;22.70;;
428;SDS011;201;48.758;9.290;2022-10-19T07:21:43;35.50;;;19.57;;
428;SDS011;201;48.758;9.290;2022-10-19T07:24:09;92.63;;;24.70;;
428;SDS011;201;48.758;9.290;2022-10-19T07:26:35;59.50;;;20.50;;
428;SDS011;201;48.758;9.290;2022-10-19T07:29:01;84.63;;;24.00;;
428;SDS011;201;48.758;9.290;2022-10-19T07:31:28;195.77;;;30.83;;
428;SDS011;201;48.758;9.290;2022-10-19T07:33:55;35.97;;;22.30;;
428;SDS011;201;48.758;9.290;2022-10-19T07:36:23;33.63;;;20.27;;
428;SDS011;201;48.758;9.290;2022-10-19T07:38:49;33.37;;;22.37;;
428;SDS011;201;48.758;9.290;2022-10-19T07:41:16;28.20;;;20.27;;
428;SDS011;201;48.758;9.290;2022-10-19T07:43:44;30.87;;;20.13;;
428;SDS011;201;48.758;9.290;2022-10-19T07:46:12;25.87;;;17.03;;
428;SDS011;201;48.758;9.290;2022-10-19T07:48:40;22.20;;;17.00;;
428;SDS011;201;48.758;9.290;2022-10-19T07:51:06;24.23;;;17.73;;
428;SDS011;201;48.758;9.290;2022-10-19T07:53:33;23.00;;;16.27;;
428;SDS011;201;48.758;9.290;2022-10-19T07:56:03;28.00;;;17.23;;
428;SDS011;201;48.758;9.290;2022-10-19T07:58:30;23.10;;;15.97;;
428;SDS011;201;48.758;9.290;2022-10-19T08:01:15;21.60;;;15.60;;
428;SDS011;201;48.758;9.290;2022-10-19T08:03:42;23.47;;;16.90;;
428;SDS011;201;48.758;9.290;2022-10-19T08:06:09;30.60;;;16.00;;
428;SDS011;201;48.758;9.290;2022-10-19T08:08:36;19.80;;;14.63;;
428;SDS011;201;48.758;9.290;2022-10-19T08:11:06;16.70;;;13.73;;
428;SDS011;201;48.758;9.290;2022-10-19T08:13:37;23.43;;;14.70;;
428;SDS011;201;48.758;9.290;2022-10-19T08:16:03;20.37;;;13.77;;
428;SDS011;201;48.758;9.290;2022-10-19T08:18:29;16.73;;;13.70;;
428;SDS011;201;48.758;9.290;2022-10-19T08:20:55;20.07;;;14.60;;
428;SDS011;201;48.758;9.290;2022-10-19T08:23:20;19.13;;;14.93;;
428;SDS011;201;48.758;9.290;2022-10-19T08:25:51;18.60;;;14.63;;
428;SDS011;201;48.758;9.290;2022-10-19T08:28:21;25.00;;;14.57;;
428;SDS011;201;48.758;9.290;2022-10-19T08:30:46;17.20;;;13.80;;
428;SDS011;201;48.758;9.290;2022-10-19T08:33:12;18.97;;;13.97;;
428;SDS011;201;48.758;9.290;2022-10-19T08:35:39;22.10;;;15.70;;
428;SDS011;201;48.758;9.290;2022-10-19T08:38:04;17.87;;;13.90;;
428;SDS011;201;48.758;9.290;2022-10-19T08:40:30;20.30;;;14.70;;
428;SDS011;201;48.758;9.290;2022-10-19T08:42:57;18.13;;;13.70;;
428;SDS011;201;48.758;9.290;2022-10-19T08:48:42;16.03;;;12.40;;
428;SDS011;201;48.758;9.290;2022-10-19T08:51:09;15.83;;;13.17;;
428;SDS011;201;48.758;9.290;2022-10-19T08:53:47;18.27;;;12.60;;
428;SDS011;201;48.758;9.290;2022-10-19T09:04:09;11.80;;;9.53;;
428;SDS011;201;48.758;9.290;2022-10-19T09:09:49;10.73;;;9.03;;
428;SDS011;201;48.758;9.290;2022-10-19T09:12:46;8.93;;;7.50;;
428;SDS011;201;48.758;9.290;2022-10-19T09:15:17;15.90;;;8.00;;
428;SDS011;201;48.758;9.290;2022-10-19T09:17:44;8.17;;;7.00;;
428;SDS011;201;48.758;9.290;2022-10-19T09:20:15;8.37;;;6.83;;
428;SDS011;201;48.758;9.290;2022-10-19T09:22:48;10.03;;;8.50;;
428;SDS011;201;48.758;9.290;2022-10-19T09:25:21;10.13;;;8.73;;
428;SDS011;201;48.758;9.290;2022-10-19T09:27:51;7.87;;;7.17;;
428;SDS011;201;48.758;9.290;2022-10-19T09:30:36;10.37;;;7.77;;
428;SDS011;201;48.758;9.290;2022-10-19T09:33:04;8.70;;;7.77;;
428;SDS011;201;48.758;9.290;2022-10-19T09:35:37;10.30;;;7.90;;
428;SDS011;201;48.758;9.290;2022-10-19T09:38:07;7.53;;;6.30;;
428;SDS011;201;48.758;9.290;2022-10-19T09:40:34;8.47;;;6.23;;
428;SDS011;201;48.758;9.290;2022-10-19T09:43:00;8.03;;;6.00;;
428;SDS011;201;48.758;9.290;2022-10-19T09:45:59;7.27;;;5.70;;
428;SDS011;201;48.758;9.290;2022-10-19T09:48:49;6.80;;;5.50;;
428;SDS011;201;48.758;9.290;2022-10-19T09:51:17;7.20;;;4.80;;
428;SDS011;201;48.758;9.290;2022-10-19T09:53:48;5.60;;;4.40;;
428;SDS011;201;48.758;9.290;2022-10-19T09:56:24;4.60;;;4.27;;
428;SDS011;201;48.758;9.290;2022-10-19T09:58:52;3.83;;;3.63;;
428;SDS011;201;48.758;9.290;2022-10-19T10:01:30;4.73;;;4.07;;
428;SDS011;201;48.758;9.290;2022-10-19T10:04:04;4.60;;;4.10;;
428;SDS011;201;48.758;9.290;2022-10-19T10:06:34;3.87;;;3.23;;
428;SDS011;201;48.758;9.290;2022-10-19T10:09:00;4.27;;;3.57;;
428;SDS011;201;48.758;9.290;2022-10-19T10:11:29;6.07;;;4.37;;
428;SDS011;201;48.758;9.290;2022-10-19T10:13:58;4.13;;;3.73;;
428;SDS011;201;48.758;9.290;2022-10-19T10:16:30;6.77;;;3.60;;
428;SDS011;201;48.758;9.290;2022-10-19T10:19:03;5.20;;;4.30;;
428;SDS011;201;48.758;9.290;2022-10-19T10:21:33;5.60;;;3.53;;
428;SDS011;201;48.758;9.290;2022-10-19T10:26:37;4.83;;;4.10;;
428;SDS011;201;48.758;9.290;2022-10-19T10:29:18;5.40;;;3.60;;
428;SDS011;201;48.758;9.290;2022-10-19T10:34:37;4.13;;;3.20;;
428;SDS011;201;48.758;9.290;2022-10-19T10:37:13;7.00;;;4.50;;
428;SDS011;201;48.758;9.290;2022-10-19T10:39:51;3.17;;;2.93;;
428;SDS011;201;48.758;9.290;2022-10-19T10:42:21;4.10;;;3.80;;
428;SDS011;201;48.758;9.290;2022-10-19T10:44:53;7.00;;;4.40;;
428;SDS011;201;48.758;9.290;2022-10-19T10:47:20;4.00;;;3.63;;
428;SDS011;201;48.758;9.290;2022-10-19T10:49:58;3.20;;;3.07;;
428;SDS011;201;48.758;9.290;2022-10-19T10:52:27;4.50;;;3.23;;
428;SDS011;201;48.758;9.290;2022-10-19T10:54:59;3.70;;;3.03;;
428;SDS011;201;48.758;9.290;2022-10-19T10:57:32;3.63;;;3.37;;
428;SDS011;201;48.758;9.290;2022-10-19T11:00:04;4.83;;;4.10;;
428;SDS011;201;48.758;9.290;2022-10-19T11:08:16;4.63;;;3.53;;
428;SDS011;201;48.758;9.290;2022-10-19T11:10:50;7.10;;;4.67;;
428;SDS011;201;48.758;9.290;2022-10-19T11:16:44;4.77;;;4.50;;
428;SDS011;201;48.758;9.290;2022-10-19T11:19:19;4.00;;;3.73;;
428;SDS011;201;48.758;9.290;2022-10-19T11:22:15;5.20;;;4.27;;
428;SDS011;201;48.758;9.290;2022-10-19T11:30:21;5.07;;;4.77;;
428;SDS011;201;48.758;9.290;2022-10-19T11:32:51;4.30;;;3.73;;
428;SDS011;201;48.758;9.290;2022-10-19T11:35:29;5.13;;;4.33;;
428;SDS011;201;48.758;9.290;2022-10-19T11:46:32;5.90;;;4.13;;
428;SDS011;201;48.758;9.290;2022-10-19T12:13:08;4.60;;;4.30;;
428;SDS011;201;48.758;9.290;2022-10-19T12:15:41;6.70;;;6.30;;
428;SDS011;201;48.758;9.290;2022-10-19T12:18:22;5.63;;;4.90;;
428;SDS011;201;48.758;9.290;2022-10-19T12:21:08;6.60;;;5.40;;
428;SDS011;201;48.758;9.290;2022-10-19T12:23:42;7.50;;;5.97;;
428;SDS011;201;48.758;9.290;2022-10-19T12:26:13;5.60;;;5.30;;
428;SDS011;201;48.758;9.290;2022-10-19T12:28:41;6.47;;;5.30;;
428;SDS011;201;48.758;9.290;2022-10-19T12:31:11;6.43;;;5.30;;
428;SDS011;201;48.758;9.290;2022-10-19T12:39:00;5.07;;;4.80;;
428;SDS011;201;48.758;9.290;2022-10-19T12:41:46;6.50;;;5.50;;
428;SDS011;201;48.758;9.290;2022-10-19T12:46:48;6.20;;;5.80;;
428;SDS011;201;48.758;9.290;2022-10-19T12:58:20;5.70;;;4.67;;
428;SDS011;201;48.758;9.290;2022-10-19T13:00:57;6.33;;;4.73;;
428;SDS011;201;48.758;9.290;2022-10-19T13:03:26;4.60;;;4.00;;
428;SDS011;201;48.758;9.290;2022-10-19T13:05:57;4.90;;;4.00;;
428;SDS011;201;48.758;9.290;2022-10-19T13:08:31;8.30;;;3.30;;
428;SDS011;201;48.758;9.290;2022-10-19T13:11:10;5.83;;;4.50;;
428;SDS011;201;48.758;9.290;2022-10-19T13:29:37;4.53;;;3.93;;
428;SDS011;201;48.758;9.290;2022-10-19T13:40:34;3.90;;;3.47;;
428;SDS011;201;48.758;9.290;2022-10-19T13:43:01;3.83;;;3.40;;
428;SDS011;201;48.758;9.290;2022-10-19T13:45:27;4.47;;;3.67;;
428;SDS011;201;48.758;9.290;2022-10-19T13:47:55;4.10;;;3.33;;
428;SDS011;201;48.758;9.290;2022-10-19T13:50:38;7.03;;;3.53;;
428;SDS011;201;48.758;9.290;2022-10-19T13:53:28;3.70;;;3.10;;
428;SDS011;201;48.758;9.290;2022-10-19T13:56:15;3.80;;;3.43;;
428;SDS011;201;48.758;9.290;2022-10-19T13:59:02;4.00;;;3.80;;
428;SDS011;201;48.758;9.290;2022-10-19T14:05:08;6.63;;;2.67;;
428;SDS011;201;48.758;9.290;2022-10-19T14:07:38;3.60;;;3.20;;
428;SDS011;201;48.758;9.290;2022-10-19T14:10:17;2.97;;;2.60;;
428;SDS011;201;48.758;9.290;2022-10-19T14:12:45;5.40;;;2.77;;
428;SDS011;201;48.758;9.290;2022-10-19T14:15:21;4.80;;;3.73;;
428;SDS011;201;48.758;9.290;2022-10-19T14:17:55;3.70;;;3.07;;
428;SDS011;201;48.758;9.290;2022-10-19T14:20:26;4.17;;;3.50;;
428;SDS011;201;48.758;9.290;2022-10-19T14:22:54;3.73;;;3.40;;
428;SDS011;201;48.758;9.290;2022-10-19T14:25:21;4.30;;;3.13;;
428;SDS011;201;48.758;9.290;2022-10-19T14:27:50;3.50;;;3.30;;
428;SDS011;201;48.758;9.290;2022-10-19T14:30:23;3.47;;;3.10;;
428;SDS011;201;48.758;9.290;2022-10-19T14:32:52;4.87;;;3.80;;
428;SDS011;201;48.758;9.290;2022-10-19T14:35:30;6.77;;;3.40;;
428;SDS011;201;48.758;9.290;2022-10-19T14:38:14;4.13;;;3.80;;
428;SDS011;201;48.758;9.290;2022-10-19T14:40:47;5.03;;;4.40;;
428;SDS011;201;48.758;9.290;2022-10-19T14:43:21;5.23;;;4.93;;
428;SDS011;201;48.758;9.290;2022-10-19T14:48:33;4.60;;;4.30;;
428;SDS011;201;48.758;9.290;2022-10-19T14:51:00;5.10;;;3.67;;
428;SDS011;201;48.758;9.290;2022-10-19T14:53:40;7.37;;;5.43;;
428;SDS011;201;48.758;9.290;2022-10-19T15:01:53;4.83;;;4.53;;
428;SDS011;201;48.758;9.290;2022-10-19T15:04:23;10.07;;;4.83;;
428;SDS011;201;48.758;9.290;2022-10-19T15:06:53;6.33;;;4.93;;
428;SDS011;201;48.758;9.290;2022-10-19T15:09:22;6.57;;;4.60;;
428;SDS011;201;48.758;9.290;2022-10-19T15:11:51;4.53;;;4.20;;
428;SDS011;201;48.758;9.290;2022-10-19T15:14:20;6.07;;;4.47;;
428;SDS011;201;48.758;9.290;2022-10-19T15:16:55;6.00;;;5.23;;
428;SDS011;201;48.758;9.290;2022-10-19T15:19:46;6.07;;;5.23;;
428;SDS011;201;48.758;9.290;2022-10-19T15:27:32;5.00;;;4.70;;
428;SDS011;201;48.758;9.290;2022-10-19T15:29:59;6.80;;;5.77;;
428;SDS011;201;48.758;9.290;2022-10-19T15:35:26;5.57;;;5.27;;
428;SDS011;201;48.758;9.290;2022-10-19T15:38:06;5.20;;;4.80;;
428;SDS011;201;48.758;9.290;2022-10-19T15:40:57;5.97;;;5.67;;
428;SDS011;201;48.758;9.290;2022-10-19T15:43:35;5.60;;;5.30;;
428;SDS011;201;48.758;9.290;2022-10-19T15:46:05;5.97;;;5.30;;
428;SDS011;201;48.758;9.290;2022-10-19T15:53:50;5.67;;;4.97;;
428;SDS011;201;48.758;9.290;2022-10-19T15:56:21;7.63;;;5.57;;
428;SDS011;201;48.758;9.290;2022-10-19T15:58:49;5.23;;;4.97;;
428;SDS011;201;48.758;9.290;2022-10-19T16:01:16;6.47;;;5.33;;
428;SDS011;201;48.758;9.290;2022-10-19T16:03:46;5.67;;;5.37;;
428;SDS011;201;48.758;9.290;2022-10-19T16:06:13;5.60;;;5.23;;
428;SDS011;201;48.758;9.290;2022-10-19T16:08:39;5.80;;;5.43;;
428;SDS011;201;48.758;9.290;2022-10-19T16:11:07;5.63;;;5.33;;
428;SDS011;201;48.758;9.290;2022-10-19T16:13:36;7.13;;;5.40;;
428;SDS011;201;48.758;9.290;2022-10-19T16:16:02;6.90;;;6.50;;
428;SDS011;201;48.758;9.290;2022-10-19T16:18:30;6.43;;;6.07;;
428;SDS011;201;48.758;9.290;2022-10-19T16:20:55;8.13;;;6.80;;
428;SDS011;201;48.758;9.290;2022-10-19T16:23:21;6.70;;;6.30;;
428;SDS011;201;48.758;9.290;2022-10-19T16:25:47;5.87;;;5.57;;
428;SDS011;201;48.758;9.290;2022-10-19T16:28:13;10.07;;;7.20;;
428;SDS011;201;48.758;9.290;2022-10-19T16:30:38;8.90;;;6.57;;
428;SDS011;201;48.758;9.290;2022-10-19T16:33:04;7.80;;;6.23;;
428;SDS011;201;48.758;9.290;2022-10-19T16:35:29;12.50;;;7.63;;
428;SDS011;201;48.758;9.290;2022-10-19T16:37:55;7.13;;;6.70;;
428;SDS011;201;48.758;9.290;2022-10-19T16:40:22;11.60;;;6.97;;
428;SDS011;201;48.758;9.290;2022-10-19T16:42:48;9.60;;;7.17;;
428;SDS011;201;48.758;9.290;2022-10-19T16:45:14;7.97;;;7.00;;
428;SDS011;201;48.758;9.290;2022-10-19T16:47:40;8.27;;;7.87;;
428;SDS011;201;48.758;9.290;2022-10-19T16:50:06;9.00;;;7.00;;
428;SDS011;201;48.758;9.290;2022-10-19T16:52:32;8.67;;;6.67;;
428;SDS011;201;48.758;9.290;2022-10-19T16:54:58;8.10;;;7.60;;
428;SDS011;201;48.758;9.290;2022-10-19T16:57:24;9.30;;;7.90;;
428;SDS011;201;48.758;9.290;2022-10-19T16:59:50;8.13;;;7.77;;
428;SDS011;201;48.758;9.290;2022-10-19T17:02:17;9.20;;;8.47;;
428;SDS011;201;48.758;9.290;2022-10-19T17:04:43;9.17;;;8.37;;
428;SDS011;201;48.758;9.290;2022-10-19T17:07:09;7.93;;;7.53;;
428;SDS011;201;48.758;9.290;2022-10-19T17:09:36;8.23;;;7.80;;
428;SDS011;201;48.758;9.290;2022-10-19T17:12:01;9.03;;;7.67;;
428;SDS011;201;48.758;9.290;2022-10-19T17:14:27;9.53;;;8.30;;
428;SDS011;201;48.758;9.290;2022-10-19T17:16:52;10.30;;;8.00;;
428;SDS011;201;48.758;9.290;2022-10-19T17:19:18;15.93;;;9.10;;
428;SDS011;201;48.758;9.290;2022-10-19T17:21:43;9.53;;;8.40;;
428;SDS011;201;48.758;9.290;2022-10-19T17:24:12;8.13;;;7.10;;
428;SDS011;201;48.758;9.290;2022-10-19T17:26:40;7.60;;;7.10;;
428;SDS011;201;48.758;9.290;2022-10-19T17:29:06;10.10;;;7.40;;
428;SDS011;201;48.758;9.290;2022-10-19T17:31:32;7.27;;;6.83;;
428;SDS011;201;48.758;9.290;2022-10-19T17:33:59;8.43;;;7.97;;
428;SDS011;201;48.758;9.290;2022-10-19T17:36:26;9.43;;;7.80;;
428;SDS011;201;48.758;9.290;2022-10-19T17:38:54;11.70;;;8.40;;
428;SDS011;201;48.758;9.290;2022-10-19T17:41:21;11.20;;;7.30;;
428;SDS011;201;48.758;9.290;2022-10-19T17:43:48;8.13;;;7.63;;
428;SDS011;201;48.758;9.290;2022-10-19T17:46:21;9.37;;;7.70;;
428;SDS011;201;48.758;9.290;2022-10-19T17:48:49;9.37;;;8.60;;
428;SDS011;201;48.758;9.290;2022-10-19T17:51:16;8.60;;;8.17;;
428;SDS011;201;48.758;9.290;2022-10-19T17:53:57;9.20;;;8.07;;
428;SDS011;201;48.758;9.290;2022-10-19T17:56:24;8.47;;;7.97;;
428;SDS011;201;48.758;9.290;2022-10-19T17:58:50;8.50;;;7.30;;
428;SDS011;201;48.758;9.290;2022-10-19T18:01:16;7.90;;;7.50;;
428;SDS011;201;48.758;9.290;2022-10-19T18:03:43;9.17;;;8.40;;
428;SDS011;201;48.758;9.290;2022-10-19T18:06:13;10.13;;;8.70;;
428;SDS011;201;48.758;9.290;2022-10-19T18:08:45;9.50;;;9.03;;
428;SDS011;201;48.758;9.290;2022-10-19T18:13:38;11.23;;;10.17;;
428;SDS011;201;48.758;9.290;2022-10-19T18:16:05;11.97;;;9.80;;
428;SDS011;201;48.758;9.290;2022-10-19T18:18:34;9.33;;;8.70;;